Time;durP1;ratioP1;P1;durP2;ratioP2;P2;SDS_P1;SDS_P2;PMS_P1;PMS_P2;Temp;Humidity;BMP_temperature;BMP_pressure;BME280_temperature;BME280_humidity;BME280_pressure;Samples;Min_cycle;Max_cycle;Signal;HPM_P1;HPM_P2
2023/03/20 00:00:45;;;;;;;5.00;3.87;;;13.10;99.90;;;;;;4991513;28;20487;-67
2023/03/20 00:03:15;;;;;;;7.37;4.30;;;13.10;99.90;;;;;;4996257;28;20454;-68
2023/03/20 00:05:48;;;;;;;6.80;4.70;;;13.10;99.90;;;;;;4997034;28;20481;-69
2023/03/20 00:08:15;;;;;;;4.00;3.70;;;13.10;99.90;;;;;;4996451;28;20470;-69
2023/03/20 00:10:45;;;;;;;4.30;3.73;;;13.00;99.90;;;;;;4985707;28;20498;-69
2023/03/20 00:13:15;;;;;;;4.57;3.20;;;13.00;99.90;;;;;;4977481;28;20428;-68
2023/03/20 00:15:43;;;;;;;5.73;4.20;;;13.00;99.90;;;;;;4977865;28;20486;-68
2023/03/20 00:18:17;;;;;;;7.17;4.70;;;12.90;99.90;;;;;;4987069;28;20478;-70
2023/03/20 00:20:47;;;;;;;7.33;4.03;;;12.90;99.90;;;;;;4995100;28;20536;-69
2023/03/20 00:23:15;;;;;;;4.50;3.20;;;12.80;99.90;;;;;;4996117;28;20872;-69
2023/03/20 00:25:45;;;;;;;5.97;4.07;;;12.80;99.90;;;;;;4989859;28;20712;-69
2023/03/20 00:28:37;;;;;;;4.83;3.90;;;12.70;99.90;;;;;;4985045;28;20477;-69
2023/03/20 00:31:06;;;;;;;3.57;2.93;;;12.70;99.90;;;;;;4976553;28;20474;-68
2023/03/20 00:33:34;;;;;;;5.60;3.40;;;12.70;99.90;;;;;;4990993;28;20430;-71
2023/03/20 00:36:05;;;;;;;8.70;3.77;;;12.70;99.90;;;;;;4993966;28;20478;-70
2023/03/20 00:38:32;;;;;;;5.23;4.10;;;12.60;99.90;;;;;;4991134;28;20838;-70
2023/03/20 00:41:00;;;;;;;4.30;3.33;;;12.60;99.90;;;;;;4988966;28;20482;-70
2023/03/20 00:43:27;;;;;;;3.97;3.50;;;12.60;99.90;;;;;;4985833;28;20824;-69
2023/03/20 00:45:55;;;;;;;5.50;3.50;;;12.50;99.90;;;;;;4977428;28;20439;-70
2023/03/20 00:48:22;;;;;;;5.77;3.90;;;12.50;99.90;;;;;;4977364;28;20475;-71
2023/03/20 00:50:49;;;;;;;5.73;4.43;;;12.50;99.90;;;;;;4988710;28;20438;-70
2023/03/20 00:53:18;;;;;;;5.97;3.90;;;12.40;99.90;;;;;;4979179;28;20447;-71
2023/03/20 00:55:53;;;;;;;4.73;3.43;;;12.40;99.90;;;;;;4977721;28;20455;-69
2023/03/20 00:58:20;;;;;;;5.83;4.27;;;12.40;99.90;;;;;;4987126;28;20523;-70
2023/03/20 01:00:50;;;;;;;4.40;3.87;;;12.30;99.90;;;;;;4980726;28;20494;-70
2023/03/20 01:03:22;;;;;;;4.10;3.70;;;12.30;99.90;;;;;;4977434;28;20490;-71
2023/03/20 01:05:51;;;;;;;9.73;3.93;;;12.30;99.90;;;;;;4977750;28;20459;-68
2023/03/20 01:08:22;;;;;;;5.20;3.90;;;12.30;99.90;;;;;;4992429;28;20725;-70
2023/03/20 01:10:54;;;;;;;2.97;2.70;;;12.30;99.90;;;;;;4994642;28;20485;-68
2023/03/20 01:13:26;;;;;;;6.40;3.80;;;12.20;99.90;;;;;;4996834;28;20540;-69
2023/03/20 01:15:59;;;;;;;5.50;4.43;;;12.20;99.90;;;;;;4995639;28;20900;-68
2023/03/20 01:18:27;;;;;;;6.07;3.53;;;12.10;99.90;;;;;;4995302;28;20518;-70
2023/03/20 01:20:54;;;;;;;4.87;3.57;;;12.10;99.90;;;;;;4995973;28;20458;-69
2023/03/20 01:23:25;;;;;;;5.10;3.43;;;12.10;99.90;;;;;;4995588;28;20445;-69
2023/03/20 01:25:52;;;;;;;4.17;3.77;;;12.10;99.90;;;;;;4984159;28;20550;-68
2023/03/20 01:28:24;;;;;;;4.10;2.83;;;12.10;99.90;;;;;;4992148;28;20877;-69
2023/03/20 01:30:52;;;;;;;5.00;3.50;;;12.10;99.90;;;;;;4995732;28;20501;-69
2023/03/20 01:33:21;;;;;;;7.40;3.67;;;12.00;99.90;;;;;;4990563;28;20494;-67
2023/03/20 01:35:49;;;;;;;5.37;3.60;;;12.00;99.90;;;;;;4995070;28;20850;-68
2023/03/20 01:38:23;;;;;;;5.93;3.60;;;12.00;99.90;;;;;;4995114;28;20544;-70
2023/03/20 01:40:57;;;;;;;13.93;7.50;;;12.10;99.90;;;;;;4993405;28;20466;-69
2023/03/20 01:43:25;;;;;;;5.90;4.00;;;12.10;99.90;;;;;;4990500;28;20457;-71
2023/03/20 01:46:01;;;;;;;8.17;3.70;;;12.10;99.90;;;;;;4995197;28;20453;-69
2023/03/20 01:48:56;;;;;;;5.00;3.90;;;12.10;99.90;;;;;;4998876;28;20527;-70
2023/03/20 01:51:26;;;;;;;6.57;3.70;;;12.10;99.90;;;;;;4996847;28;20473;-69
2023/03/20 01:53:59;;;;;;;4.80;3.73;;;12.10;99.90;;;;;;4996148;28;20493;-68
2023/03/20 01:56:35;;;;;;;3.80;3.50;;;12.10;99.90;;;;;;4996668;28;20899;-68
2023/03/20 01:59:06;;;;;;;4.50;3.63;;;12.10;99.90;;;;;;4995995;28;20469;-70
2023/03/20 02:01:37;;;;;;;5.47;4.07;;;12.10;99.90;;;;;;4996602;28;20879;-69
2023/03/20 02:04:05;;;;;;;6.03;3.60;;;12.10;99.90;;;;;;4996100;28;20484;-68
2023/03/20 02:06:33;;;;;;;5.30;3.60;;;12.10;99.90;;;;;;4995217;28;20486;-69
2023/03/20 02:09:01;;;;;;;4.10;3.47;;;12.10;99.90;;;;;;4994438;28;20500;-70
2023/03/20 02:11:30;;;;;;;7.87;4.20;;;12.00;99.90;;;;;;4994588;28;20462;-72
2023/03/20 02:14:00;;;;;;;6.23;3.80;;;12.00;99.90;;;;;;4995240;28;20473;-69
2023/03/20 02:16:30;;;;;;;4.40;3.97;;;12.00;99.90;;;;;;4995104;28;20466;-69
2023/03/20 02:18:58;;;;;;;4.00;3.60;;;12.00;99.90;;;;;;4988767;28;20487;-70
2023/03/20 02:22:05;;;;;;;5.87;3.83;;;11.90;99.90;;;;;;4983471;28;20802;-68
2023/03/20 02:25:18;;;;;;;4.70;4.00;;;11.90;99.90;;;;;;4995222;28;20470;-70
2023/03/20 02:28:23;;;;;;;10.73;4.40;;;11.90;99.90;;;;;;4930255;28;20454;-69
2023/03/20 02:31:16;;;;;;;7.40;5.10;;;11.80;99.90;;;;;;4984761;28;20937;-69
2023/03/20 02:34:18;;;;;;;5.07;3.40;;;11.70;99.90;;;;;;4993378;28;20480;-68
2023/03/20 02:37:31;;;;;;;5.83;4.70;;;11.70;99.90;;;;;;4979882;28;20547;-69
2023/03/20 02:40:08;;;;;;;9.03;4.53;;;11.70;99.90;;;;;;4964702;28;20450;-68
2023/03/20 02:42:42;;;;;;;4.60;4.10;;;11.70;99.90;;;;;;4975349;28;20996;-68
2023/03/20 02:45:17;;;;;;;6.43;4.43;;;11.70;99.90;;;;;;4977476;28;20958;-68
2023/03/20 02:47:51;;;;;;;10.93;4.83;;;11.60;99.90;;;;;;4983851;28;20572;-68
2023/03/20 02:50:29;;;;;;;6.77;4.60;;;11.60;99.90;;;;;;4996608;28;20527;-68
2023/03/20 02:53:07;;;;;;;5.53;4.33;;;11.60;99.90;;;;;;4995571;28;20504;-68
2023/03/20 02:55:40;;;;;;;6.13;4.30;;;11.60;99.90;;;;;;4994746;28;20509;-66
2023/03/20 02:58:16;;;;;;;6.40;4.20;;;11.60;99.90;;;;;;4996593;28;20477;-68
2023/03/20 03:00:50;;;;;;;4.30;3.93;;;11.60;99.90;;;;;;4997429;28;20462;-70
2023/03/20 03:03:22;;;;;;;6.17;4.20;;;11.60;99.90;;;;;;4997366;28;20468;-70
2023/03/20 03:05:54;;;;;;;5.77;4.23;;;11.60;99.90;;;;;;4996931;28;20469;-69
2023/03/20 03:08:31;;;;;;;7.80;4.10;;;11.50;99.90;;;;;;4996303;28;21091;-68
2023/03/20 03:11:03;;;;;;;5.50;3.90;;;11.60;99.90;;;;;;4996313;28;20527;-69
2023/03/20 03:13:34;;;;;;;5.57;4.33;;;11.60;99.90;;;;;;4996984;28;20493;-69
2023/03/20 03:16:05;;;;;;;5.33;4.10;;;11.60;99.90;;;;;;4997396;28;20767;-72
2023/03/20 03:18:37;;;;;;;11.70;4.47;;;11.60;99.90;;;;;;4996271;28;20890;-68
2023/03/20 03:21:07;;;;;;;5.50;4.10;;;11.60;99.90;;;;;;4996681;28;20492;-69
2023/03/20 03:23:42;;;;;;;7.37;4.60;;;11.60;99.90;;;;;;4996327;28;20501;-70
2023/03/20 03:26:15;;;;;;;4.30;3.60;;;11.60;99.90;;;;;;4979041;28;20845;-69
2023/03/20 03:28:46;;;;;;;6.97;4.37;;;11.60;99.90;;;;;;4995980;28;20850;-70
2023/03/20 03:31:16;;;;;;;4.43;4.00;;;11.60;99.90;;;;;;4991968;28;21004;-70
2023/03/20 03:33:49;;;;;;;5.47;4.43;;;11.60;99.90;;;;;;4982240;28;20526;-69
2023/03/20 03:36:29;;;;;;;5.40;4.77;;;11.60;99.90;;;;;;4983242;28;20455;-68
2023/03/20 03:39:07;;;;;;;4.30;3.90;;;11.60;99.90;;;;;;4989076;28;20486;-69
2023/03/20 03:41:39;;;;;;;6.17;3.70;;;11.60;99.90;;;;;;4991411;28;20476;-70
2023/03/20 03:44:23;;;;;;;5.30;4.20;;;11.50;99.90;;;;;;4988639;28;20485;-71
2023/03/20 03:46:54;;;;;;;11.10;5.27;;;11.50;99.90;;;;;;4996339;28;20434;-70
2023/03/20 03:49:26;;;;;;;5.37;4.10;;;11.50;99.90;;;;;;4999900;28;20556;-71
2023/03/20 03:51:57;;;;;;;7.83;4.43;;;11.50;99.90;;;;;;5008453;28;20508;-68
2023/03/20 03:54:31;;;;;;;10.53;4.77;;;11.50;99.90;;;;;;4982541;28;20493;-70
2023/03/20 03:57:01;;;;;;;5.73;4.43;;;11.50;99.90;;;;;;4979614;28;20471;-68
2023/03/20 03:59:32;;;;;;;10.03;4.73;;;11.50;99.90;;;;;;4984025;28;20480;-71
2023/03/20 04:02:02;;;;;;;6.30;4.50;;;11.50;99.90;;;;;;4986258;28;20482;-70
2023/03/20 04:04:31;;;;;;;8.77;5.50;;;11.50;99.90;;;;;;4992298;28;20450;-71
2023/03/20 04:06:59;;;;;;;5.73;4.77;;;11.40;99.90;;;;;;4993893;28;20489;-69
2023/03/20 04:09:29;;;;;;;6.87;4.60;;;11.40;99.90;;;;;;4990130;28;20529;-69
2023/03/20 04:11:56;;;;;;;7.60;4.70;;;11.40;99.90;;;;;;4983628;28;20971;-70
2023/03/20 04:14:23;;;;;;;7.70;5.47;;;11.40;99.90;;;;;;4992685;28;20474;-70
2023/03/20 04:16:52;;;;;;;5.37;4.67;;;11.40;99.90;;;;;;4988706;28;20533;-69
2023/03/20 04:19:19;;;;;;;6.70;4.90;;;11.40;99.90;;;;;;4988757;28;20552;-69
2023/03/20 04:21:46;;;;;;;9.87;5.13;;;11.40;99.90;;;;;;4984322;28;20514;-70
2023/03/20 04:24:14;;;;;;;7.40;5.50;;;11.40;99.90;;;;;;4989627;28;20537;-69
2023/03/20 04:26:42;;;;;;;8.77;5.77;;;11.30;99.90;;;;;;4993462;28;20465;-69
2023/03/20 04:29:10;;;;;;;9.50;5.63;;;11.30;99.90;;;;;;4993088;28;20485;-69
2023/03/20 04:31:39;;;;;;;7.10;5.10;;;11.30;99.90;;;;;;4985032;28;20836;-70
2023/03/20 04:34:08;;;;;;;8.10;5.00;;;11.30;99.90;;;;;;4993752;28;20841;-71
2023/03/20 04:36:35;;;;;;;9.67;5.03;;;11.20;99.90;;;;;;4989309;28;20478;-70
2023/03/20 04:39:02;;;;;;;7.67;5.03;;;11.20;99.90;;;;;;4974448;28;20502;-71
2023/03/20 04:41:29;;;;;;;5.40;4.70;;;11.20;99.90;;;;;;4990807;28;21000;-72
2023/03/20 04:43:58;;;;;;;9.00;4.70;;;11.20;99.90;;;;;;4988416;28;20465;-70
2023/03/20 04:46:25;;;;;;;6.73;5.40;;;11.20;99.90;;;;;;4985958;28;20518;-70
2023/03/20 04:48:52;;;;;;;6.13;5.20;;;11.20;99.90;;;;;;4993467;28;20497;-69
2023/03/20 04:51:19;;;;;;;6.73;5.37;;;11.20;99.90;;;;;;4992994;28;20580;-70
2023/03/20 04:53:46;;;;;;;8.00;6.20;;;11.30;99.90;;;;;;4993477;28;20536;-71
2023/03/20 04:56:15;;;;;;;5.43;4.90;;;11.30;99.90;;;;;;4989805;28;20458;-69
2023/03/20 04:58:42;;;;;;;8.90;5.37;;;11.30;99.90;;;;;;4976725;28;20961;-71
2023/03/20 05:01:11;;;;;;;10.00;5.90;;;11.30;99.90;;;;;;4989433;28;20972;-70
2023/03/20 05:03:39;;;;;;;10.37;5.30;;;11.30;99.90;;;;;;4980463;28;20486;-71
2023/03/20 05:06:07;;;;;;;6.70;5.20;;;11.30;99.90;;;;;;4990151;28;20446;-71
2023/03/20 05:08:34;;;;;;;9.07;5.57;;;11.30;99.90;;;;;;4984584;28;21190;-71
2023/03/20 05:11:02;;;;;;;8.03;5.77;;;11.30;99.90;;;;;;4981061;28;20478;-72
2023/03/20 05:13:29;;;;;;;8.00;5.87;;;11.30;99.90;;;;;;4983983;28;20569;-71
2023/03/20 05:15:57;;;;;;;8.57;5.73;;;11.30;99.90;;;;;;4992481;28;20496;-71
2023/03/20 05:18:26;;;;;;;7.17;5.30;;;11.30;99.90;;;;;;4985038;28;20477;-69
2023/03/20 05:20:57;;;;;;;7.10;5.57;;;11.30;99.90;;;;;;4996203;28;20438;-69
2023/03/20 05:23:28;;;;;;;7.50;5.60;;;11.30;99.90;;;;;;4991787;28;20808;-70
2023/03/20 05:25:56;;;;;;;10.17;6.27;;;11.30;99.90;;;;;;4990766;28;20544;-69
2023/03/20 05:28:23;;;;;;;7.80;5.90;;;11.30;99.90;;;;;;4991731;28;20846;-69
2023/03/20 05:30:50;;;;;;;10.87;7.23;;;11.30;99.90;;;;;;4993180;28;20556;-68
2023/03/20 05:33:19;;;;;;;8.83;6.80;;;11.30;99.90;;;;;;4989047;28;20473;-71
2023/03/20 05:35:47;;;;;;;9.13;6.57;;;11.30;99.90;;;;;;4986346;28;20455;-70
2023/03/20 05:38:21;;;;;;;10.83;7.47;;;11.30;99.90;;;;;;4994384;28;20902;-70
2023/03/20 05:40:48;;;;;;;9.83;6.60;;;11.30;99.90;;;;;;4981545;28;20463;-71
2023/03/20 05:43:15;;;;;;;8.53;7.00;;;11.30;99.90;;;;;;4990678;28;20446;-71
2023/03/20 05:45:43;;;;;;;11.57;7.00;;;11.30;99.90;;;;;;4999818;28;20458;-70
2023/03/20 05:48:10;;;;;;;12.00;7.20;;;11.30;99.90;;;;;;4988147;28;20509;-69
2023/03/20 05:50:37;;;;;;;13.80;7.43;;;11.40;99.90;;;;;;4995272;28;20895;-71
2023/03/20 05:53:06;;;;;;;10.83;7.10;;;11.40;99.90;;;;;;4991000;28;20453;-69
2023/03/20 05:55:35;;;;;;;11.60;7.50;;;11.40;99.90;;;;;;4998206;28;20521;-70
2023/03/20 05:58:02;;;;;;;11.43;7.90;;;11.40;99.90;;;;;;4987449;28;20513;-71
2023/03/20 06:00:29;;;;;;;11.70;9.53;;;11.40;99.90;;;;;;4998675;28;20457;-68
2023/03/20 06:02:56;;;;;;;9.70;7.80;;;11.40;99.90;;;;;;4997634;28;20477;-67
2023/03/20 06:05:24;;;;;;;12.23;8.07;;;11.40;99.90;;;;;;4996206;28;20462;-69
2023/03/20 06:07:53;;;;;;;11.63;8.17;;;11.50;99.90;;;;;;4996374;28;20469;-68
2023/03/20 06:10:26;;;;;;;9.27;7.27;;;11.50;99.90;;;;;;4991252;28;20470;-69
2023/03/20 06:12:53;;;;;;;10.60;8.00;;;11.50;99.90;;;;;;4995858;28;20496;-67
2023/03/20 06:15:28;;;;;;;13.63;9.33;;;11.50;99.90;;;;;;4990327;28;20498;-70
2023/03/20 06:17:55;;;;;;;14.27;9.97;;;11.50;99.90;;;;;;4990976;28;21022;-68
2023/03/20 06:20:23;;;;;;;12.30;8.20;;;11.40;99.90;;;;;;5006843;28;20438;-68
2023/03/20 06:22:50;;;;;;;16.03;10.63;;;11.40;99.90;;;;;;5006849;28;20816;-68
2023/03/20 06:25:17;;;;;;;15.80;10.50;;;11.30;99.90;;;;;;5002081;28;20446;-71
2023/03/20 06:27:46;;;;;;;21.53;11.30;;;11.20;99.90;;;;;;5003866;28;20442;-71
2023/03/20 06:30:15;;;;;;;22.10;10.70;;;11.10;99.90;;;;;;4996627;28;20529;-71
2023/03/20 06:32:44;;;;;;;15.33;9.20;;;11.20;99.90;;;;;;5004145;28;20470;-71
2023/03/20 06:35:13;;;;;;;21.67;13.07;;;11.10;99.90;;;;;;5002316;28;20450;-71
2023/03/20 06:37:41;;;;;;;25.83;15.30;;;11.10;99.90;;;;;;4998733;28;20494;-69
2023/03/20 06:40:10;;;;;;;23.17;14.77;;;11.00;99.90;;;;;;5002562;28;20461;-70
2023/03/20 06:42:38;;;;;;;23.23;13.13;;;11.00;99.90;;;;;;4992504;28;20822;-69
2023/03/20 06:45:08;;;;;;;24.87;15.17;;;11.00;99.90;;;;;;5002128;28;20450;-70
2023/03/20 06:47:35;;;;;;;29.70;17.20;;;11.00;99.90;;;;;;5001076;28;20966;-71
2023/03/20 06:50:02;;;;;;;27.73;18.57;;;10.90;99.90;;;;;;5001447;28;20458;-70
2023/03/20 06:52:29;;;;;;;34.07;19.40;;;10.80;99.90;;;;;;4992196;28;20532;-70
2023/03/20 06:54:56;;;;;;;25.80;17.83;;;10.80;99.90;;;;;;5000409;28;20533;-71
2023/03/20 06:57:24;;;;;;;31.40;16.37;;;10.80;99.90;;;;;;5000707;28;20469;-69
2023/03/20 06:59:51;;;;;;;21.37;13.67;;;10.90;99.90;;;;;;4996388;28;20521;-69
2023/03/20 07:02:22;;;;;;;24.30;13.17;;;10.80;99.90;;;;;;4993071;28;20525;-72
2023/03/20 07:04:49;;;;;;;25.10;13.33;;;10.70;99.90;;;;;;4981926;28;20477;-72
2023/03/20 07:07:16;;;;;;;28.50;17.33;;;10.70;99.90;;;;;;4986957;28;20534;-70
2023/03/20 07:09:44;;;;;;;33.40;17.83;;;10.70;99.90;;;;;;4990298;28;20466;-71
2023/03/20 07:12:13;;;;;;;35.10;18.10;;;10.70;99.90;;;;;;4997810;28;20569;-69
2023/03/20 07:14:41;;;;;;;36.90;19.77;;;10.70;99.90;;;;;;4992830;28;21044;-68
2023/03/20 07:17:09;;;;;;;34.53;18.00;;;10.60;99.90;;;;;;4995007;28;20473;-69
2023/03/20 07:19:39;;;;;;;38.73;18.30;;;10.60;99.90;;;;;;4995711;28;20502;-69
2023/03/20 07:22:07;;;;;;;30.70;15.83;;;10.60;99.90;;;;;;4987495;28;20442;-70
2023/03/20 07:24:35;;;;;;;34.27;17.27;;;10.50;99.90;;;;;;4997672;28;20466;-69
2023/03/20 07:27:02;;;;;;;31.70;16.90;;;10.50;99.90;;;;;;4997198;28;20465;-70
2023/03/20 07:29:29;;;;;;;30.53;18.00;;;10.50;99.90;;;;;;4989470;28;20852;-68
2023/03/20 07:31:56;;;;;;;39.27;19.13;;;10.50;99.90;;;;;;4986587;28;20573;-69
2023/03/20 07:34:23;;;;;;;29.67;15.30;;;10.60;99.90;;;;;;4984718;28;20513;-68
2023/03/20 07:36:52;;;;;;;35.40;19.43;;;10.50;99.90;;;;;;4992615;28;20493;-69
2023/03/20 07:39:19;;;;;;;38.17;16.33;;;10.50;99.90;;;;;;4989172;28;20540;-69
2023/03/20 07:41:46;;;;;;;28.07;15.80;;;10.40;99.90;;;;;;4991753;28;20635;-70
2023/03/20 07:44:13;;;;;;;32.03;17.67;;;10.40;99.90;;;;;;4994811;28;20505;-68
2023/03/20 07:46:41;;;;;;;29.20;13.97;;;10.40;99.90;;;;;;4991699;28;20494;-68
2023/03/20 07:49:08;;;;;;;26.13;14.23;;;10.40;99.90;;;;;;4985758;28;20478;-69
2023/03/20 07:51:35;;;;;;;23.47;12.70;;;10.30;99.90;;;;;;4992096;28;20569;-68
2023/03/20 07:54:04;;;;;;;27.13;13.27;;;10.20;99.90;;;;;;4985121;28;20494;-68
2023/03/20 07:56:31;;;;;;;27.87;12.27;;;10.10;99.90;;;;;;4988621;28;20482;-69
2023/03/20 07:58:58;;;;;;;27.70;14.13;;;10.00;99.90;;;;;;4982305;28;20482;-68
2023/03/20 08:01:26;;;;;;;31.43;16.07;;;10.00;99.90;;;;;;4986538;28;20993;-69
2023/03/20 08:03:54;;;;;;;34.27;16.27;;;10.10;99.90;;;;;;4982448;28;20517;-69
2023/03/20 08:06:22;;;;;;;36.33;17.57;;;10.20;99.90;;;;;;4989609;28;20461;-69
2023/03/20 08:08:51;;;;;;;29.43;15.30;;;10.20;99.90;;;;;;4981319;28;20561;-69
2023/03/20 08:11:20;;;;;;;32.27;16.30;;;10.40;99.90;;;;;;4983584;28;20470;-70
2023/03/20 08:13:47;;;;;;;13.47;8.03;;;10.50;99.90;;;;;;4980829;28;20545;-69
2023/03/20 08:16:14;;;;;;;36.33;14.90;;;11.00;99.90;;;;;;4987994;28;20482;-67
2023/03/20 08:18:41;;;;;;;19.43;11.90;;;11.70;99.90;;;;;;4979862;28;20482;-69
2023/03/20 08:21:40;;;;;;;26.17;13.70;;;12.10;99.90;;;;;;4995619;28;20435;-69
2023/03/20 08:24:07;;;;;;;31.80;15.77;;;12.00;99.90;;;;;;5018686;28;20442;-69
2023/03/20 08:26:58;;;;;;;28.43;13.73;;;11.70;99.90;;;;;;5016908;28;20437;-67
2023/03/20 08:29:26;;;;;;;26.20;13.40;;;11.50;99.90;;;;;;5016200;28;20461;-67
2023/03/20 08:31:53;;;;;;;30.40;13.90;;;11.30;99.90;;;;;;5013444;28;20530;-67
2023/03/20 08:34:19;;;;;;;30.50;15.50;;;11.10;99.90;;;;;;5018180;28;20415;-67
2023/03/20 08:37:00;;;;;;;23.80;11.80;;;11.10;99.90;;;;;;5014100;28;20479;-68
2023/03/20 08:39:27;;;;;;;22.53;11.50;;;11.20;99.90;;;;;;5016116;28;20472;-68
2023/03/20 08:41:55;;;;;;;22.80;10.80;;;11.10;99.90;;;;;;5016280;28;20477;-68
2023/03/20 08:44:24;;;;;;;25.00;10.83;;;11.00;99.90;;;;;;5002623;28;20474;-67
2023/03/20 08:47:11;;;;;;;24.07;10.37;;;10.90;99.90;;;;;;5006483;28;20451;-68
2023/03/20 08:49:38;;;;;;;22.63;10.87;;;10.90;99.90;;;;;;5009388;28;20473;-67
2023/03/20 08:52:05;;;;;;;19.20;9.33;;;11.00;99.90;;;;;;4993141;28;20525;-68
2023/03/20 08:54:33;;;;;;;23.30;11.03;;;11.30;99.90;;;;;;4985287;28;20879;-69
2023/03/20 08:57:01;;;;;;;23.67;9.80;;;11.90;99.90;;;;;;4986415;28;20481;-69
2023/03/20 08:59:30;;;;;;;18.10;9.67;;;12.70;99.90;;;;;;4988260;28;20531;-68
2023/03/20 09:01:57;;;;;;;19.43;9.70;;;13.20;99.90;;;;;;4988027;28;20854;-69
2023/03/20 09:04:24;;;;;;;21.60;9.93;;;13.40;99.90;;;;;;4987637;28;20457;-70
2023/03/20 09:06:51;;;;;;;22.17;10.27;;;13.70;99.90;;;;;;4981590;28;20446;-69
2023/03/20 09:09:25;;;;;;;21.73;11.13;;;13.60;99.90;;;;;;4980998;28;20505;-68
2023/03/20 09:11:52;;;;;;;20.00;9.83;;;13.30;99.90;;;;;;4995306;28;20482;-69
2023/03/20 09:14:20;;;;;;;32.10;14.57;;;13.30;99.90;;;;;;4989804;28;20484;-69
2023/03/20 09:16:48;;;;;;;22.10;10.20;;;13.10;99.90;;;;;;4979312;28;20497;-69
2023/03/20 09:19:15;;;;;;;15.87;9.07;;;12.90;99.90;;;;;;4984374;28;20509;-67
2023/03/20 09:21:42;;;;;;;14.60;7.93;;;13.00;99.90;;;;;;4990346;28;20462;-68
2023/03/20 09:24:11;;;;;;;18.00;9.43;;;12.90;99.90;;;;;;4985277;28;20534;-68
2023/03/20 09:26:39;;;;;;;19.53;7.87;;;12.70;99.90;;;;;;4990611;28;20488;-70
2023/03/20 09:29:06;;;;;;;14.50;8.20;;;12.60;99.90;;;;;;4992680;28;20489;-68
2023/03/20 09:31:34;;;;;;;18.70;7.80;;;12.60;99.90;;;;;;5000998;28;20505;-69
2023/03/20 09:34:03;;;;;;;15.83;8.40;;;12.40;99.90;;;;;;4990181;28;20473;-68
2023/03/20 09:36:31;;;;;;;15.77;8.80;;;12.30;99.90;;;;;;4984694;28;20455;-68
2023/03/20 09:38:58;;;;;;;20.93;8.63;;;12.20;99.90;;;;;;4999111;28;20549;-67
2023/03/20 09:41:26;;;;;;;15.87;8.13;;;12.20;99.90;;;;;;5001156;28;20475;-68
2023/03/20 09:44:06;;;;;;;13.47;7.27;;;12.40;99.90;;;;;;4988746;28;20473;-68
2023/03/20 09:46:50;;;;;;;12.63;6.60;;;12.50;99.90;;;;;;4998786;28;20545;-70
2023/03/20 09:49:33;;;;;;;12.63;6.87;;;12.60;99.90;;;;;;4995782;28;20469;-68
2023/03/20 09:52:09;;;;;;;16.20;7.07;;;12.90;99.90;;;;;;4996110;28;20497;-68
2023/03/20 09:54:40;;;;;;;16.70;7.20;;;13.00;99.90;;;;;;4991751;28;20450;-67
2023/03/20 09:57:17;;;;;;;18.20;9.20;;;13.10;99.90;;;;;;4998789;28;20485;-67
2023/03/20 09:59:45;;;;;;;19.07;9.17;;;13.00;99.90;;;;;;4990249;28;20537;-69
2023/03/20 10:02:18;;;;;;;16.57;8.47;;;12.80;99.90;;;;;;4996278;28;20533;-68
2023/03/20 10:04:48;;;;;;;15.57;7.80;;;12.80;99.90;;;;;;4998198;28;20489;-69
2023/03/20 10:07:17;;;;;;;14.90;6.40;;;12.50;99.90;;;;;;4988759;28;20462;-68
2023/03/20 10:09:45;;;;;;;14.33;8.00;;;12.40;99.90;;;;;;4994940;28;20482;-69
2023/03/20 10:12:41;;;;;;;18.20;8.33;;;12.40;99.90;;;;;;4999446;28;20477;-68
2023/03/20 10:15:16;;;;;;;14.33;7.87;;;12.30;99.90;;;;;;4999865;28;20453;-69
2023/03/20 10:17:52;;;;;;;16.10;6.10;;;12.30;99.90;;;;;;4994575;28;20851;-68
2023/03/20 10:20:31;;;;;;;21.67;8.30;;;12.30;99.90;;;;;;4991310;28;20454;-70
2023/03/20 10:23:02;;;;;;;18.90;6.70;;;12.30;99.90;;;;;;5000393;28;20477;-69
2023/03/20 10:25:33;;;;;;;12.03;7.60;;;12.30;99.90;;;;;;5000525;28;20466;-67
2023/03/20 10:28:05;;;;;;;12.30;6.63;;;12.30;99.90;;;;;;5004203;28;20540;-68
2023/03/20 10:30:49;;;;;;;13.60;7.97;;;12.30;99.90;;;;;;5009358;28;20453;-68
2023/03/20 10:33:29;;;;;;;18.70;7.70;;;12.20;99.90;;;;;;5004280;28;20473;-68
2023/03/20 10:36:09;;;;;;;15.47;8.37;;;12.20;99.90;;;;;;4999492;28;20515;-67
2023/03/20 10:38:42;;;;;;;15.83;7.40;;;12.10;99.90;;;;;;5000710;28;21226;-68
2023/03/20 10:41:18;;;;;;;13.93;7.37;;;12.10;99.90;;;;;;5003590;28;20437;-70
2023/03/20 10:43:48;;;;;;;9.37;5.77;;;12.10;99.90;;;;;;4995442;28;20523;-69
2023/03/20 10:46:22;;;;;;;10.50;5.67;;;12.10;99.90;;;;;;5005073;28;20453;-66
2023/03/20 10:48:54;;;;;;;12.83;5.87;;;12.20;99.90;;;;;;4996245;28;20479;-69
2023/03/20 10:51:30;;;;;;;10.40;5.80;;;12.20;99.90;;;;;;4998858;28;20497;-71
2023/03/20 10:54:01;;;;;;;13.07;6.97;;;12.20;99.90;;;;;;4998905;28;20465;-73
2023/03/20 10:56:36;;;;;;;12.10;6.70;;;12.20;99.90;;;;;;4996665;28;20485;-71
2023/03/20 10:59:06;;;;;;;16.20;7.40;;;12.20;99.90;;;;;;4997802;28;20503;-68
2023/03/20 11:01:34;;;;;;;12.07;6.70;;;12.20;99.90;;;;;;5001313;28;20469;-68
2023/03/20 11:04:01;;;;;;;14.63;7.43;;;12.20;99.90;;;;;;4997389;28;20481;-67
2023/03/20 11:06:33;;;;;;;8.93;5.40;;;12.20;99.90;;;;;;4994488;28;20536;-66
2023/03/20 11:09:12;;;;;;;9.40;5.50;;;12.20;99.90;;;;;;4995849;28;20498;-65
2023/03/20 11:11:43;;;;;;;13.30;8.00;;;12.20;99.90;;;;;;5002287;28;20505;-69
2023/03/20 11:14:17;;;;;;;13.53;6.17;;;12.10;99.90;;;;;;4991512;28;20527;-69
2023/03/20 11:16:50;;;;;;;11.70;6.63;;;12.00;99.90;;;;;;4996049;28;20557;-69
2023/03/20 11:19:20;;;;;;;9.67;4.77;;;11.90;99.90;;;;;;4999352;28;20477;-68
2023/03/20 11:21:50;;;;;;;13.27;5.37;;;11.90;99.90;;;;;;5001596;28;20454;-67
2023/03/20 11:24:27;;;;;;;10.73;5.00;;;11.90;99.90;;;;;;4994406;28;20851;-69
2023/03/20 11:26:55;;;;;;;10.73;5.90;;;12.10;99.90;;;;;;5002110;28;20496;-68
2023/03/20 11:29:29;;;;;;;9.50;4.67;;;12.20;99.90;;;;;;5003602;28;20474;-68
2023/03/20 11:32:06;;;;;;;9.33;5.00;;;12.30;99.90;;;;;;4994846;28;20502;-68
2023/03/20 11:34:39;;;;;;;8.60;4.43;;;12.30;99.90;;;;;;5003675;28;20457;-67
2023/03/20 11:37:22;;;;;;;8.70;3.97;;;12.40;99.90;;;;;;4999379;28;20450;-66
2023/03/20 11:40:02;;;;;;;11.00;4.60;;;12.50;99.90;;;;;;4999363;28;20504;-68
2023/03/20 11:42:32;;;;;;;10.80;6.63;;;12.60;99.90;;;;;;4997306;28;20469;-68
2023/03/20 11:45:01;;;;;;;11.00;5.80;;;12.70;99.90;;;;;;5010401;28;20480;-68
2023/03/20 11:47:33;;;;;;;9.27;4.73;;;12.70;99.90;;;;;;4995615;28;20454;-69
2023/03/20 11:50:03;;;;;;;7.27;3.47;;;12.80;99.90;;;;;;4996884;28;20478;-68
2023/03/20 11:52:34;;;;;;;10.90;5.67;;;13.00;99.90;;;;;;4992586;28;20474;-69
2023/03/20 11:55:05;;;;;;;6.83;4.60;;;13.00;99.90;;;;;;4988792;28;20485;-69
2023/03/20 11:57:38;;;;;;;12.53;5.83;;;13.10;99.90;;;;;;4988539;28;20853;-68
2023/03/20 12:00:19;;;;;;;10.93;6.20;;;13.00;99.90;;;;;;4990666;28;20439;-69
2023/03/20 12:02:46;;;;;;;7.53;4.43;;;12.80;99.90;;;;;;4991856;28;20451;-68
2023/03/20 12:05:28;;;;;;;10.60;5.57;;;12.80;99.90;;;;;;4987480;28;21038;-71
2023/03/20 12:08:01;;;;;;;8.40;4.80;;;12.70;99.90;;;;;;4996208;28;20485;-69
2023/03/20 12:10:35;;;;;;;9.30;5.43;;;12.70;99.90;;;;;;4996351;28;20516;-70
2023/03/20 12:13:09;;;;;;;11.70;6.70;;;12.60;99.90;;;;;;4992743;28;20477;-68
2023/03/20 12:15:40;;;;;;;8.30;5.10;;;12.60;99.90;;;;;;4997681;28;20559;-70
2023/03/20 12:18:15;;;;;;;9.33;4.93;;;12.60;99.90;;;;;;5004688;28;20466;-75
2023/03/20 12:20:50;;;;;;;10.80;4.87;;;12.70;99.90;;;;;;4995995;28;20466;-72
2023/03/20 12:23:29;;;;;;;9.40;5.60;;;12.80;99.90;;;;;;4996776;28;20472;-69
2023/03/20 12:26:00;;;;;;;9.13;4.60;;;12.70;99.90;;;;;;5005592;28;20501;-73
2023/03/20 12:28:36;;;;;;;9.67;5.17;;;12.70;99.90;;;;;;5006029;28;20526;-73
2023/03/20 12:31:17;;;;;;;9.23;5.80;;;12.70;99.90;;;;;;5001429;28;20509;-72
2023/03/20 12:33:55;;;;;;;10.03;5.10;;;12.80;99.90;;;;;;4989669;28;20486;-70
2023/03/20 12:36:30;;;;;;;12.30;4.93;;;12.90;99.90;;;;;;4995104;28;20463;-75
2023/03/20 12:39:01;;;;;;;8.73;5.47;;;13.10;99.90;;;;;;4993411;28;20476;-73
2023/03/20 12:41:36;;;;;;;10.40;5.17;;;13.10;99.90;;;;;;5011740;28;20446;-71
2023/03/20 12:44:29;;;;;;;15.10;5.30;;;13.00;99.90;;;;;;5000683;28;20466;-74
2023/03/20 12:47:09;;;;;;;10.43;5.70;;;12.90;99.90;;;;;;4999414;28;20455;-72
2023/03/20 12:49:47;;;;;;;9.90;4.87;;;12.90;99.90;;;;;;5003473;28;20483;-71
2023/03/20 12:52:26;;;;;;;8.73;5.40;;;12.80;99.90;;;;;;5006234;28;20470;-71
2023/03/20 12:55:17;;;;;;;7.00;4.50;;;12.70;99.90;;;;;;5006354;28;20540;-71
2023/03/20 12:57:58;;;;;;;16.50;6.77;;;12.70;99.90;;;;;;5006266;28;20449;-71
2023/03/20 13:00:33;;;;;;;17.10;5.90;;;12.80;99.90;;;;;;5004821;28;20481;-74
2023/03/20 13:03:22;;;;;;;11.53;5.57;;;12.60;99.90;;;;;;5003878;28;20449;-72